sensor_id;sensor_type;location;lat;lon;timestamp;P1;durP1;ratioP1;P2;durP2;ratioP2
22097;SDS011;11215;51.938;8.464;2023-04-25T00:00:12;9.83;;;4.33;;
22097;SDS011;11215;51.938;8.464;2023-04-25T00:02:39;8.87;;;4.67;;
22097;SDS011;11215;51.938;8.464;2023-04-25T00:05:05;12.37;;;4.53;;
22097;SDS011;11215;51.938;8.464;2023-04-25T00:07:30;12.70;;;4.63;;
22097;SDS011;11215;51.938;8.464;2023-04-25T00:09:57;13.33;;;4.60;;
22097;SDS011;11215;51.938;8.464;2023-04-25T00:12:23;9.57;;;4.30;;
22097;SDS011;11215;51.938;8.464;2023-04-25T00:14:49;9.17;;;3.80;;
22097;SDS011;11215;51.938;8.464;2023-04-25T00:17:15;10.90;;;3.80;;
22097;SDS011;11215;51.938;8.464;2023-04-25T00:19:44;13.20;;;5.07;;
22097;SDS011;11215;51.938;8.464;2023-04-25T00:22:11;9.87;;;4.20;;
22097;SDS011;11215;51.938;8.464;2023-04-25T00:24:37;12.03;;;5.17;;
22097;SDS011;11215;51.938;8.464;2023-04-25T00:27:03;10.03;;;4.60;;
22097;SDS011;11215;51.938;8.464;2023-04-25T00:29:28;8.73;;;4.63;;
22097;SDS011;11215;51.938;8.464;2023-04-25T00:31:56;10.13;;;4.07;;
22097;SDS011;11215;51.938;8.464;2023-04-25T00:34:22;11.73;;;4.90;;
22097;SDS011;11215;51.938;8.464;2023-04-25T00:36:48;11.57;;;4.40;;
22097;SDS011;11215;51.938;8.464;2023-04-25T00:39:13;7.23;;;4.07;;
22097;SDS011;11215;51.938;8.464;2023-04-25T00:41:39;12.47;;;4.03;;
22097;SDS011;11215;51.938;8.464;2023-04-25T00:44:05;11.57;;;4.60;;
22097;SDS011;11215;51.938;8.464;2023-04-25T00:46:32;10.00;;;4.50;;
22097;SDS011;11215;51.938;8.464;2023-04-25T00:48:57;9.50;;;4.30;;
22097;SDS011;11215;51.938;8.464;2023-04-25T00:51:23;8.97;;;4.70;;
22097;SDS011;11215;51.938;8.464;2023-04-25T00:53:50;10.43;;;4.93;;
22097;SDS011;11215;51.938;8.464;2023-04-25T00:56:16;11.83;;;4.63;;
22097;SDS011;11215;51.938;8.464;2023-04-25T00:58:42;10.13;;;4.40;;
22097;SDS011;11215;51.938;8.464;2023-04-25T01:01:08;11.63;;;4.97;;
22097;SDS011;11215;51.938;8.464;2023-04-25T01:03:35;10.50;;;5.00;;
22097;SDS011;11215;51.938;8.464;2023-04-25T01:06:06;11.07;;;4.53;;
22097;SDS011;11215;51.938;8.464;2023-04-25T01:08:34;11.00;;;4.50;;
22097;SDS011;11215;51.938;8.464;2023-04-25T01:11:00;7.03;;;4.13;;
22097;SDS011;11215;51.938;8.464;2023-04-25T01:13:25;10.50;;;4.50;;
22097;SDS011;11215;51.938;8.464;2023-04-25T01:15:51;10.17;;;4.77;;
22097;SDS011;11215;51.938;8.464;2023-04-25T01:18:18;10.83;;;5.00;;
22097;SDS011;11215;51.938;8.464;2023-04-25T01:20:45;8.97;;;4.80;;
22097;SDS011;11215;51.938;8.464;2023-04-25T01:23:12;15.13;;;5.03;;
22097;SDS011;11215;51.938;8.464;2023-04-25T01:25:38;10.87;;;5.13;;
22097;SDS011;11215;51.938;8.464;2023-04-25T01:28:05;12.53;;;5.23;;
22097;SDS011;11215;51.938;8.464;2023-04-25T01:30:31;10.87;;;5.50;;
22097;SDS011;11215;51.938;8.464;2023-04-25T01:32:57;10.07;;;4.87;;
22097;SDS011;11215;51.938;8.464;2023-04-25T01:35:24;7.97;;;4.90;;
22097;SDS011;11215;51.938;8.464;2023-04-25T01:37:50;9.77;;;4.50;;
22097;SDS011;11215;51.938;8.464;2023-04-25T01:40:16;10.00;;;4.90;;
22097;SDS011;11215;51.938;8.464;2023-04-25T01:42:43;10.43;;;4.97;;
22097;SDS011;11215;51.938;8.464;2023-04-25T01:45:10;9.37;;;5.20;;
22097;SDS011;11215;51.938;8.464;2023-04-25T01:47:36;12.57;;;4.80;;
22097;SDS011;11215;51.938;8.464;2023-04-25T01:50:04;9.53;;;5.40;;
22097;SDS011;11215;51.938;8.464;2023-04-25T01:52:31;7.67;;;4.43;;
22097;SDS011;11215;51.938;8.464;2023-04-25T01:54:57;9.53;;;5.03;;
22097;SDS011;11215;51.938;8.464;2023-04-25T01:57:26;8.27;;;4.73;;
22097;SDS011;11215;51.938;8.464;2023-04-25T01:59:52;11.23;;;5.30;;
22097;SDS011;11215;51.938;8.464;2023-04-25T02:02:27;6.47;;;4.30;;
22097;SDS011;11215;51.938;8.464;2023-04-25T02:04:53;11.00;;;5.10;;
22097;SDS011;11215;51.938;8.464;2023-04-25T02:07:19;9.53;;;5.27;;
22097;SDS011;11215;51.938;8.464;2023-04-25T02:09:45;8.93;;;4.93;;
22097;SDS011;11215;51.938;8.464;2023-04-25T02:12:11;9.37;;;4.93;;
22097;SDS011;11215;51.938;8.464;2023-04-25T02:14:37;9.57;;;4.83;;
22097;SDS011;11215;51.938;8.464;2023-04-25T02:17:02;8.80;;;4.77;;
22097;SDS011;11215;51.938;8.464;2023-04-25T02:19:28;10.23;;;4.80;;
22097;SDS011;11215;51.938;8.464;2023-04-25T02:21:53;11.20;;;5.40;;
22097;SDS011;11215;51.938;8.464;2023-04-25T02:24:20;11.70;;;5.00;;
22097;SDS011;11215;51.938;8.464;2023-04-25T02:26:45;8.43;;;4.93;;
22097;SDS011;11215;51.938;8.464;2023-04-25T02:29:11;8.13;;;4.30;;
22097;SDS011;11215;51.938;8.464;2023-04-25T02:31:37;7.97;;;4.20;;
22097;SDS011;11215;51.938;8.464;2023-04-25T02:34:03;8.07;;;4.50;;
22097;SDS011;11215;51.938;8.464;2023-04-25T02:36:29;9.87;;;4.47;;
22097;SDS011;11215;51.938;8.464;2023-04-25T02:38:57;9.87;;;5.23;;
22097;SDS011;11215;51.938;8.464;2023-04-25T02:41:22;9.23;;;4.60;;
22097;SDS011;11215;51.938;8.464;2023-04-25T02:43:48;7.60;;;4.70;;
22097;SDS011;11215;51.938;8.464;2023-04-25T02:46:14;7.47;;;4.27;;
22097;SDS011;11215;51.938;8.464;2023-04-25T02:48:40;7.97;;;4.40;;
22097;SDS011;11215;51.938;8.464;2023-04-25T02:51:05;10.90;;;4.73;;
22097;SDS011;11215;51.938;8.464;2023-04-25T02:53:31;11.47;;;4.97;;
22097;SDS011;11215;51.938;8.464;2023-04-25T02:55:56;7.57;;;4.33;;
22097;SDS011;11215;51.938;8.464;2023-04-25T02:58:24;6.77;;;3.97;;
22097;SDS011;11215;51.938;8.464;2023-04-25T03:00:50;8.57;;;4.07;;
22097;SDS011;11215;51.938;8.464;2023-04-25T03:03:15;8.47;;;4.20;;
22097;SDS011;11215;51.938;8.464;2023-04-25T03:05:43;7.73;;;4.10;;
22097;SDS011;11215;51.938;8.464;2023-04-25T03:08:09;7.10;;;3.47;;
22097;SDS011;11215;51.938;8.464;2023-04-25T03:10:34;9.17;;;4.83;;
22097;SDS011;11215;51.938;8.464;2023-04-25T03:13:00;8.90;;;4.10;;
22097;SDS011;11215;51.938;8.464;2023-04-25T03:15:26;5.00;;;3.50;;
22097;SDS011;11215;51.938;8.464;2023-04-25T03:17:51;6.83;;;3.10;;
22097;SDS011;11215;51.938;8.464;2023-04-25T03:20:17;6.33;;;3.17;;
22097;SDS011;11215;51.938;8.464;2023-04-25T03:22:43;6.27;;;3.23;;
22097;SDS011;11215;51.938;8.464;2023-04-25T03:25:09;6.83;;;3.80;;
22097;SDS011;11215;51.938;8.464;2023-04-25T03:27:35;8.10;;;3.60;;
22097;SDS011;11215;51.938;8.464;2023-04-25T03:30:01;11.53;;;3.40;;
22097;SDS011;11215;51.938;8.464;2023-04-25T03:32:27;8.93;;;3.67;;
22097;SDS011;11215;51.938;8.464;2023-04-25T03:34:52;5.33;;;3.07;;
22097;SDS011;11215;51.938;8.464;2023-04-25T03:37:18;8.93;;;4.30;;
22097;SDS011;11215;51.938;8.464;2023-04-25T03:39:43;8.97;;;3.07;;
22097;SDS011;11215;51.938;8.464;2023-04-25T03:42:09;8.00;;;3.23;;
22097;SDS011;11215;51.938;8.464;2023-04-25T03:44:35;6.80;;;3.07;;
22097;SDS011;11215;51.938;8.464;2023-04-25T03:47:00;8.27;;;3.40;;
22097;SDS011;11215;51.938;8.464;2023-04-25T03:49:26;11.10;;;3.30;;
22097;SDS011;11215;51.938;8.464;2023-04-25T03:51:52;11.17;;;3.30;;
22097;SDS011;11215;51.938;8.464;2023-04-25T03:54:17;9.13;;;3.10;;
22097;SDS011;11215;51.938;8.464;2023-04-25T03:56:43;7.10;;;3.00;;
22097;SDS011;11215;51.938;8.464;2023-04-25T03:59:09;9.27;;;3.50;;
22097;SDS011;11215;51.938;8.464;2023-04-25T04:01:34;9.57;;;3.40;;
22097;SDS011;11215;51.938;8.464;2023-04-25T04:04:00;8.40;;;3.10;;
22097;SDS011;11215;51.938;8.464;2023-04-25T04:06:26;8.10;;;3.37;;
22097;SDS011;11215;51.938;8.464;2023-04-25T04:08:51;12.90;;;4.20;;
22097;SDS011;11215;51.938;8.464;2023-04-25T04:11:17;8.03;;;3.50;;
22097;SDS011;11215;51.938;8.464;2023-04-25T04:13:43;6.57;;;3.50;;
22097;SDS011;11215;51.938;8.464;2023-04-25T04:16:08;11.20;;;4.03;;
22097;SDS011;11215;51.938;8.464;2023-04-25T04:18:34;9.80;;;4.00;;
22097;SDS011;11215;51.938;8.464;2023-04-25T04:21:03;7.57;;;3.63;;
22097;SDS011;11215;51.938;8.464;2023-04-25T04:23:29;9.70;;;3.77;;
22097;SDS011;11215;51.938;8.464;2023-04-25T04:25:55;12.73;;;3.83;;
22097;SDS011;11215;51.938;8.464;2023-04-25T04:28:21;7.57;;;3.97;;
22097;SDS011;11215;51.938;8.464;2023-04-25T04:30:47;10.93;;;3.63;;
22097;SDS011;11215;51.938;8.464;2023-04-25T04:33:13;12.10;;;4.03;;
22097;SDS011;11215;51.938;8.464;2023-04-25T04:35:40;9.10;;;3.93;;
22097;SDS011;11215;51.938;8.464;2023-04-25T04:38:06;16.13;;;4.00;;
22097;SDS011;11215;51.938;8.464;2023-04-25T04:40:32;11.67;;;4.87;;
22097;SDS011;11215;51.938;8.464;2023-04-25T04:42:58;14.07;;;4.30;;
22097;SDS011;11215;51.938;8.464;2023-04-25T04:45:23;10.93;;;4.40;;
22097;SDS011;11215;51.938;8.464;2023-04-25T04:47:49;8.27;;;3.70;;
22097;SDS011;11215;51.938;8.464;2023-04-25T04:50:15;12.50;;;4.40;;
22097;SDS011;11215;51.938;8.464;2023-04-25T04:52:41;10.87;;;4.07;;
22097;SDS011;11215;51.938;8.464;2023-04-25T04:55:07;12.03;;;4.07;;
22097;SDS011;11215;51.938;8.464;2023-04-25T04:57:33;11.43;;;4.43;;
22097;SDS011;11215;51.938;8.464;2023-04-25T04:59:59;10.13;;;3.77;;
22097;SDS011;11215;51.938;8.464;2023-04-25T05:02:26;17.83;;;4.47;;
22097;SDS011;11215;51.938;8.464;2023-04-25T05:04:51;13.20;;;4.50;;
22097;SDS011;11215;51.938;8.464;2023-04-25T05:07:18;10.57;;;4.17;;
22097;SDS011;11215;51.938;8.464;2023-04-25T05:09:44;10.07;;;4.73;;
22097;SDS011;11215;51.938;8.464;2023-04-25T05:12:09;9.27;;;4.17;;
22097;SDS011;11215;51.938;8.464;2023-04-25T05:14:35;12.33;;;4.13;;
22097;SDS011;11215;51.938;8.464;2023-04-25T05:17:01;8.47;;;4.33;;
22097;SDS011;11215;51.938;8.464;2023-04-25T05:19:29;15.53;;;4.47;;
22097;SDS011;11215;51.938;8.464;2023-04-25T05:21:55;9.93;;;4.63;;
22097;SDS011;11215;51.938;8.464;2023-04-25T05:24:21;18.33;;;4.57;;
22097;SDS011;11215;51.938;8.464;2023-04-25T05:26:46;13.80;;;4.73;;
22097;SDS011;11215;51.938;8.464;2023-04-25T05:29:12;16.57;;;4.37;;
22097;SDS011;11215;51.938;8.464;2023-04-25T05:31:37;10.17;;;4.30;;
22097;SDS011;11215;51.938;8.464;2023-04-25T05:34:03;10.43;;;4.47;;
22097;SDS011;11215;51.938;8.464;2023-04-25T05:36:29;10.23;;;5.17;;
22097;SDS011;11215;51.938;8.464;2023-04-25T05:38:55;12.97;;;5.17;;
22097;SDS011;11215;51.938;8.464;2023-04-25T05:41:21;12.10;;;4.30;;
22097;SDS011;11215;51.938;8.464;2023-04-25T05:43:47;11.80;;;4.73;;
22097;SDS011;11215;51.938;8.464;2023-04-25T05:46:14;11.80;;;4.60;;
22097;SDS011;11215;51.938;8.464;2023-04-25T05:48:41;12.20;;;4.43;;
22097;SDS011;11215;51.938;8.464;2023-04-25T05:51:08;11.30;;;4.10;;
22097;SDS011;11215;51.938;8.464;2023-04-25T05:53:36;12.37;;;4.47;;
22097;SDS011;11215;51.938;8.464;2023-04-25T05:56:02;14.53;;;4.83;;
22097;SDS011;11215;51.938;8.464;2023-04-25T05:58:28;11.83;;;4.47;;
22097;SDS011;11215;51.938;8.464;2023-04-25T06:00:54;14.10;;;4.90;;
22097;SDS011;11215;51.938;8.464;2023-04-25T06:03:20;11.70;;;5.33;;
22097;SDS011;11215;51.938;8.464;2023-04-25T06:05:46;14.63;;;5.77;;
22097;SDS011;11215;51.938;8.464;2023-04-25T06:08:11;15.10;;;5.23;;
22097;SDS011;11215;51.938;8.464;2023-04-25T06:10:37;11.70;;;4.33;;
22097;SDS011;11215;51.938;8.464;2023-04-25T06:13:04;14.83;;;4.93;;
22097;SDS011;11215;51.938;8.464;2023-04-25T06:15:30;11.97;;;3.53;;
22097;SDS011;11215;51.938;8.464;2023-04-25T06:17:57;12.27;;;4.20;;
22097;SDS011;11215;51.938;8.464;2023-04-25T06:20:23;11.30;;;4.10;;
22097;SDS011;11215;51.938;8.464;2023-04-25T06:22:49;14.00;;;4.27;;
22097;SDS011;11215;51.938;8.464;2023-04-25T06:25:17;12.60;;;4.47;;
22097;SDS011;11215;51.938;8.464;2023-04-25T06:27:42;11.03;;;3.90;;
22097;SDS011;11215;51.938;8.464;2023-04-25T06:30:08;14.13;;;4.03;;
22097;SDS011;11215;51.938;8.464;2023-04-25T06:32:36;14.07;;;4.50;;
22097;SDS011;11215;51.938;8.464;2023-04-25T06:35:02;12.63;;;4.17;;
22097;SDS011;11215;51.938;8.464;2023-04-25T06:37:28;9.97;;;3.43;;
22097;SDS011;11215;51.938;8.464;2023-04-25T06:39:54;10.63;;;3.70;;
22097;SDS011;11215;51.938;8.464;2023-04-25T06:42:19;11.43;;;3.90;;
22097;SDS011;11215;51.938;8.464;2023-04-25T06:44:45;15.07;;;4.17;;
22097;SDS011;11215;51.938;8.464;2023-04-25T06:47:10;13.90;;;3.97;;
22097;SDS011;11215;51.938;8.464;2023-04-25T06:49:36;9.50;;;3.40;;
22097;SDS011;11215;51.938;8.464;2023-04-25T06:52:02;11.77;;;4.27;;
22097;SDS011;11215;51.938;8.464;2023-04-25T06:54:28;12.67;;;4.17;;
22097;SDS011;11215;51.938;8.464;2023-04-25T06:56:54;10.40;;;3.47;;
22097;SDS011;11215;51.938;8.464;2023-04-25T06:59:21;11.13;;;3.87;;
22097;SDS011;11215;51.938;8.464;2023-04-25T07:01:46;7.80;;;2.97;;
22097;SDS011;11215;51.938;8.464;2023-04-25T07:04:12;9.80;;;3.43;;
22097;SDS011;11215;51.938;8.464;2023-04-25T07:06:38;12.47;;;3.40;;
22097;SDS011;11215;51.938;8.464;2023-04-25T07:09:10;11.07;;;3.57;;
22097;SDS011;11215;51.938;8.464;2023-04-25T07:11:36;12.17;;;3.83;;
22097;SDS011;11215;51.938;8.464;2023-04-25T07:14:02;8.53;;;2.77;;
22097;SDS011;11215;51.938;8.464;2023-04-25T07:16:28;11.93;;;3.13;;
22097;SDS011;11215;51.938;8.464;2023-04-25T07:18:54;9.60;;;2.90;;
22097;SDS011;11215;51.938;8.464;2023-04-25T07:21:20;9.80;;;3.10;;
22097;SDS011;11215;51.938;8.464;2023-04-25T07:23:46;6.17;;;3.10;;
22097;SDS011;11215;51.938;8.464;2023-04-25T07:26:11;12.60;;;3.17;;
22097;SDS011;11215;51.938;8.464;2023-04-25T07:28:37;8.47;;;3.43;;
22097;SDS011;11215;51.938;8.464;2023-04-25T07:31:03;12.50;;;3.67;;
22097;SDS011;11215;51.938;8.464;2023-04-25T07:33:30;9.77;;;3.53;;
22097;SDS011;11215;51.938;8.464;2023-04-25T07:35:56;12.10;;;3.57;;
22097;SDS011;11215;51.938;8.464;2023-04-25T07:38:22;8.80;;;3.10;;
22097;SDS011;11215;51.938;8.464;2023-04-25T07:40:48;13.60;;;3.93;;
22097;SDS011;11215;51.938;8.464;2023-04-25T07:43:14;12.30;;;3.17;;
22097;SDS011;11215;51.938;8.464;2023-04-25T07:45:42;6.87;;;3.03;;
22097;SDS011;11215;51.938;8.464;2023-04-25T07:48:08;8.00;;;3.27;;
22097;SDS011;11215;51.938;8.464;2023-04-25T07:50:34;10.23;;;3.10;;
22097;SDS011;11215;51.938;8.464;2023-04-25T07:52:59;8.60;;;3.30;;
22097;SDS011;11215;51.938;8.464;2023-04-25T07:55:25;8.43;;;2.73;;
22097;SDS011;11215;51.938;8.464;2023-04-25T07:57:51;9.43;;;3.00;;
22097;SDS011;11215;51.938;8.464;2023-04-25T08:00:17;9.83;;;2.70;;
22097;SDS011;11215;51.938;8.464;2023-04-25T08:02:43;7.87;;;3.17;;
22097;SDS011;11215;51.938;8.464;2023-04-25T08:05:09;8.80;;;3.10;;
22097;SDS011;11215;51.938;8.464;2023-04-25T08:07:41;9.03;;;3.07;;
22097;SDS011;11215;51.938;8.464;2023-04-25T08:10:33;9.60;;;3.03;;
22097;SDS011;11215;51.938;8.464;2023-04-25T08:12:59;15.23;;;3.37;;
22097;SDS011;11215;51.938;8.464;2023-04-25T08:15:27;8.87;;;3.23;;
22097;SDS011;11215;51.938;8.464;2023-04-25T08:18:19;7.27;;;2.77;;
22097;SDS011;11215;51.938;8.464;2023-04-25T08:24:33;9.87;;;2.87;;
22097;SDS011;11215;51.938;8.464;2023-04-25T14:15:05;2.90;;;1.53;;
22097;SDS011;11215;51.938;8.464;2023-04-25T14:17:31;5.60;;;2.30;;
22097;SDS011;11215;51.938;8.464;2023-04-25T14:19:56;4.87;;;1.80;;
22097;SDS011;11215;51.938;8.464;2023-04-25T14:22:22;4.37;;;1.73;;
22097;SDS011;11215;51.938;8.464;2023-04-25T14:24:48;4.23;;;1.40;;
22097;SDS011;11215;51.938;8.464;2023-04-25T14:27:13;4.73;;;1.50;;
22097;SDS011;11215;51.938;8.464;2023-04-25T14:29:39;4.00;;;1.20;;
22097;SDS011;11215;51.938;8.464;2023-04-25T14:32:05;2.47;;;1.33;;
22097;SDS011;11215;51.938;8.464;2023-04-25T14:34:31;4.43;;;2.13;;
22097;SDS011;11215;51.938;8.464;2023-04-25T14:37:00;5.13;;;1.30;;
22097;SDS011;11215;51.938;8.464;2023-04-25T14:39:25;1.57;;;1.10;;
22097;SDS011;11215;51.938;8.464;2023-04-25T14:41:51;3.77;;;1.67;;
22097;SDS011;11215;51.938;8.464;2023-04-25T14:44:17;4.60;;;1.80;;
22097;SDS011;11215;51.938;8.464;2023-04-25T14:46:42;7.13;;;1.77;;
22097;SDS011;11215;51.938;8.464;2023-04-25T14:49:08;3.93;;;1.80;;
22097;SDS011;11215;51.938;8.464;2023-04-25T14:51:34;3.60;;;1.53;;
22097;SDS011;11215;51.938;8.464;2023-04-25T14:53:59;5.47;;;1.63;;
22097;SDS011;11215;51.938;8.464;2023-04-25T14:56:25;2.37;;;1.50;;
22097;SDS011;11215;51.938;8.464;2023-04-25T14:58:51;2.10;;;1.40;;
22097;SDS011;11215;51.938;8.464;2023-04-25T15:01:17;4.13;;;2.00;;
22097;SDS011;11215;51.938;8.464;2023-04-25T15:03:42;2.50;;;1.67;;
22097;SDS011;11215;51.938;8.464;2023-04-25T15:06:08;6.20;;;2.00;;
22097;SDS011;11215;51.938;8.464;2023-04-25T15:08:34;5.40;;;1.97;;
22097;SDS011;11215;51.938;8.464;2023-04-25T15:11:00;3.00;;;1.50;;
22097;SDS011;11215;51.938;8.464;2023-04-25T15:13:27;3.53;;;1.63;;
22097;SDS011;11215;51.938;8.464;2023-04-25T15:15:52;5.60;;;1.87;;
22097;SDS011;11215;51.938;8.464;2023-04-25T15:18:22;3.10;;;1.30;;
22097;SDS011;11215;51.938;8.464;2023-04-25T15:20:51;3.13;;;1.37;;
22097;SDS011;11215;51.938;8.464;2023-04-25T15:23:18;4.00;;;1.43;;
22097;SDS011;11215;51.938;8.464;2023-04-25T15:25:45;3.40;;;1.30;;
22097;SDS011;11215;51.938;8.464;2023-04-25T15:28:11;2.77;;;1.50;;
22097;SDS011;11215;51.938;8.464;2023-04-25T15:30:39;3.43;;;1.10;;
22097;SDS011;11215;51.938;8.464;2023-04-25T15:33:05;3.90;;;1.53;;
22097;SDS011;11215;51.938;8.464;2023-04-25T15:35:31;3.20;;;1.40;;
22097;SDS011;11215;51.938;8.464;2023-04-25T15:37:56;2.47;;;1.50;;
22097;SDS011;11215;51.938;8.464;2023-04-25T15:40:22;5.27;;;1.67;;
22097;SDS011;11215;51.938;8.464;2023-04-25T15:42:50;2.47;;;1.40;;
22097;SDS011;11215;51.938;8.464;2023-04-25T15:45:16;3.73;;;1.40;;
22097;SDS011;11215;51.938;8.464;2023-04-25T15:47:44;4.03;;;1.60;;
22097;SDS011;11215;51.938;8.464;2023-04-25T15:50:10;1.93;;;1.27;;
22097;SDS011;11215;51.938;8.464;2023-04-25T15:52:36;1.87;;;1.27;;
22097;SDS011;11215;51.938;8.464;2023-04-25T15:55:02;2.97;;;1.00;;
22097;SDS011;11215;51.938;8.464;2023-04-25T15:57:29;2.57;;;1.03;;
22097;SDS011;11215;51.938;8.464;2023-04-25T15:59:56;2.50;;;1.10;;
22097;SDS011;11215;51.938;8.464;2023-04-25T16:02:22;3.10;;;1.10;;
22097;SDS011;11215;51.938;8.464;2023-04-25T16:04:48;3.33;;;1.07;;
22097;SDS011;11215;51.938;8.464;2023-04-25T16:07:13;1.57;;;1.03;;
22097;SDS011;11215;51.938;8.464;2023-04-25T16:09:39;1.67;;;1.00;;
22097;SDS011;11215;51.938;8.464;2023-04-25T16:12:05;3.07;;;1.17;;
22097;SDS011;11215;51.938;8.464;2023-04-25T16:14:32;2.50;;;1.20;;
22097;SDS011;11215;51.938;8.464;2023-04-25T16:16:58;2.30;;;1.50;;
22097;SDS011;11215;51.938;8.464;2023-04-25T16:19:23;2.40;;;1.10;;
22097;SDS011;11215;51.938;8.464;2023-04-25T16:21:49;4.23;;;1.50;;
22097;SDS011;11215;51.938;8.464;2023-04-25T16:24:16;4.30;;;1.83;;
22097;SDS011;11215;51.938;8.464;2023-04-25T16:26:42;3.10;;;1.43;;
22097;SDS011;11215;51.938;8.464;2023-04-25T16:29:08;2.37;;;1.73;;
22097;SDS011;11215;51.938;8.464;2023-04-25T16:31:34;3.83;;;1.50;;
22097;SDS011;11215;51.938;8.464;2023-04-25T16:34:01;3.33;;;1.20;;
22097;SDS011;11215;51.938;8.464;2023-04-25T16:36:27;4.90;;;1.53;;
22097;SDS011;11215;51.938;8.464;2023-04-25T16:38:53;1.83;;;1.27;;
22097;SDS011;11215;51.938;8.464;2023-04-25T16:41:18;2.03;;;1.20;;
22097;SDS011;11215;51.938;8.464;2023-04-25T16:43:44;3.80;;;1.37;;
22097;SDS011;11215;51.938;8.464;2023-04-25T16:46:09;2.23;;;1.23;;
22097;SDS011;11215;51.938;8.464;2023-04-25T16:48:35;1.90;;;1.10;;
22097;SDS011;11215;51.938;8.464;2023-04-25T16:51:01;3.07;;;1.43;;
22097;SDS011;11215;51.938;8.464;2023-04-25T16:53:26;2.03;;;1.30;;
22097;SDS011;11215;51.938;8.464;2023-04-25T16:55:52;6.63;;;1.60;;
22097;SDS011;11215;51.938;8.464;2023-04-25T16:58:18;2.33;;;1.20;;
22097;SDS011;11215;51.938;8.464;2023-04-25T17:00:44;4.77;;;1.50;;
22097;SDS011;11215;51.938;8.464;2023-04-25T17:03:11;2.40;;;1.40;;
22097;SDS011;11215;51.938;8.464;2023-04-25T17:05:37;1.30;;;1.20;;
22097;SDS011;11215;51.938;8.464;2023-04-25T17:08:03;3.00;;;1.50;;
22097;SDS011;11215;51.938;8.464;2023-04-25T17:10:29;2.17;;;1.43;;
22097;SDS011;11215;51.938;8.464;2023-04-25T17:12:55;3.07;;;1.17;;
22097;SDS011;11215;51.938;8.464;2023-04-25T17:15:21;1.83;;;1.30;;
22097;SDS011;11215;51.938;8.464;2023-04-25T17:17:47;3.53;;;1.30;;
22097;SDS011;11215;51.938;8.464;2023-04-25T17:20:12;4.00;;;1.70;;
22097;SDS011;11215;51.938;8.464;2023-04-25T17:22:38;3.13;;;1.50;;
22097;SDS011;11215;51.938;8.464;2023-04-25T17:25:05;6.93;;;1.80;;
22097;SDS011;11215;51.938;8.464;2023-04-25T17:27:32;3.90;;;2.37;;
22097;SDS011;11215;51.938;8.464;2023-04-25T17:30:01;2.57;;;1.20;;
22097;SDS011;11215;51.938;8.464;2023-04-25T17:32:28;3.33;;;1.23;;
22097;SDS011;11215;51.938;8.464;2023-04-25T17:34:54;5.40;;;1.53;;
22097;SDS011;11215;51.938;8.464;2023-04-25T17:37:21;3.30;;;1.43;;
22097;SDS011;11215;51.938;8.464;2023-04-25T17:39:47;6.60;;;1.90;;
22097;SDS011;11215;51.938;8.464;2023-04-25T17:42:13;1.87;;;1.33;;
22097;SDS011;11215;51.938;8.464;2023-04-25T17:44:39;3.20;;;1.50;;
22097;SDS011;11215;51.938;8.464;2023-04-25T17:47:06;4.10;;;1.60;;
22097;SDS011;11215;51.938;8.464;2023-04-25T17:49:33;3.27;;;1.63;;
22097;SDS011;11215;51.938;8.464;2023-04-25T17:51:59;2.27;;;1.33;;
22097;SDS011;11215;51.938;8.464;2023-04-25T17:54:24;3.27;;;1.47;;
22097;SDS011;11215;51.938;8.464;2023-04-25T17:56:51;4.20;;;1.90;;
22097;SDS011;11215;51.938;8.464;2023-04-25T17:59:18;2.17;;;1.43;;
22097;SDS011;11215;51.938;8.464;2023-04-25T18:01:44;3.60;;;1.70;;
22097;SDS011;11215;51.938;8.464;2023-04-25T18:04:11;5.43;;;3.93;;
22097;SDS011;11215;51.938;8.464;2023-04-25T18:06:38;4.63;;;1.80;;
22097;SDS011;11215;51.938;8.464;2023-04-25T18:09:04;3.03;;;1.97;;
22097;SDS011;11215;51.938;8.464;2023-04-25T18:11:41;4.67;;;1.60;;
22097;SDS011;11215;51.938;8.464;2023-04-25T18:14:11;5.63;;;1.83;;
22097;SDS011;11215;51.938;8.464;2023-04-25T18:16:41;3.53;;;1.40;;
22097;SDS011;11215;51.938;8.464;2023-04-25T18:19:07;3.97;;;2.00;;
22097;SDS011;11215;51.938;8.464;2023-04-25T18:21:43;2.70;;;1.40;;
22097;SDS011;11215;51.938;8.464;2023-04-25T18:24:10;3.70;;;1.30;;
22097;SDS011;11215;51.938;8.464;2023-04-25T18:26:38;3.10;;;1.33;;
22097;SDS011;11215;51.938;8.464;2023-04-25T18:29:04;5.33;;;1.33;;
22097;SDS011;11215;51.938;8.464;2023-04-25T18:31:31;4.17;;;1.23;;
22097;SDS011;11215;51.938;8.464;2023-04-25T18:33:57;2.80;;;1.10;;
22097;SDS011;11215;51.938;8.464;2023-04-25T18:36:23;2.50;;;1.27;;
22097;SDS011;11215;51.938;8.464;2023-04-25T18:38:49;4.43;;;1.27;;
22097;SDS011;11215;51.938;8.464;2023-04-25T18:41:19;5.07;;;1.23;;
22097;SDS011;11215;51.938;8.464;2023-04-25T18:43:54;2.07;;;1.20;;
22097;SDS011;11215;51.938;8.464;2023-04-25T18:46:25;2.70;;;0.97;;
22097;SDS011;11215;51.938;8.464;2023-04-25T18:48:51;2.93;;;1.13;;
22097;SDS011;11215;51.938;8.464;2023-04-25T18:51:23;1.20;;;0.90;;
22097;SDS011;11215;51.938;8.464;2023-04-25T18:53:51;2.07;;;1.27;;
22097;SDS011;11215;51.938;8.464;2023-04-25T18:56:17;2.53;;;0.90;;
22097;SDS011;11215;51.938;8.464;2023-04-25T18:58:45;2.20;;;1.10;;
22097;SDS011;11215;51.938;8.464;2023-04-25T19:01:11;2.47;;;1.00;;
22097;SDS011;11215;51.938;8.464;2023-04-25T19:03:37;2.53;;;1.10;;
22097;SDS011;11215;51.938;8.464;2023-04-25T19:06:02;1.63;;;1.07;;
22097;SDS011;11215;51.938;8.464;2023-04-25T19:08:29;4.83;;;1.27;;
22097;SDS011;11215;51.938;8.464;2023-04-25T19:10:54;4.20;;;1.33;;
22097;SDS011;11215;51.938;8.464;2023-04-25T19:13:20;4.50;;;1.43;;
22097;SDS011;11215;51.938;8.464;2023-04-25T19:15:46;4.73;;;1.30;;
22097;SDS011;11215;51.938;8.464;2023-04-25T19:18:12;6.03;;;1.23;;
22097;SDS011;11215;51.938;8.464;2023-04-25T19:20:41;3.63;;;1.30;;
22097;SDS011;11215;51.938;8.464;2023-04-25T19:23:07;2.93;;;1.00;;
22097;SDS011;11215;51.938;8.464;2023-04-25T19:25:34;1.63;;;0.93;;
22097;SDS011;11215;51.938;8.464;2023-04-25T19:28:00;5.70;;;1.37;;
22097;SDS011;11215;51.938;8.464;2023-04-25T19:30:27;2.70;;;1.27;;
22097;SDS011;11215;51.938;8.464;2023-04-25T19:32:55;3.27;;;1.50;;
22097;SDS011;11215;51.938;8.464;2023-04-25T19:35:21;4.00;;;1.17;;
22097;SDS011;11215;51.938;8.464;2023-04-25T19:37:48;3.03;;;1.33;;
22097;SDS011;11215;51.938;8.464;2023-04-25T19:40:14;2.83;;;1.77;;
22097;SDS011;11215;51.938;8.464;2023-04-25T19:42:41;3.03;;;1.43;;
22097;SDS011;11215;51.938;8.464;2023-04-25T19:45:08;6.60;;;1.27;;
22097;SDS011;11215;51.938;8.464;2023-04-25T19:47:34;2.23;;;1.40;;
22097;SDS011;11215;51.938;8.464;2023-04-25T19:50:04;3.13;;;1.37;;
22097;SDS011;11215;51.938;8.464;2023-04-25T19:52:31;2.60;;;1.10;;
22097;SDS011;11215;51.938;8.464;2023-04-25T19:54:58;4.40;;;1.90;;
22097;SDS011;11215;51.938;8.464;2023-04-25T19:57:26;3.37;;;1.83;;
22097;SDS011;11215;51.938;8.464;2023-04-25T19:59:57;2.70;;;1.63;;
22097;SDS011;11215;51.938;8.464;2023-04-25T20:02:29;3.70;;;1.50;;
22097;SDS011;11215;51.938;8.464;2023-04-25T20:04:55;4.13;;;1.70;;
22097;SDS011;11215;51.938;8.464;2023-04-25T20:07:20;4.93;;;1.40;;
22097;SDS011;11215;51.938;8.464;2023-04-25T20:09:47;2.57;;;1.70;;
22097;SDS011;11215;51.938;8.464;2023-04-25T20:12:13;3.30;;;1.60;;
22097;SDS011;11215;51.938;8.464;2023-04-25T20:14:40;3.67;;;1.47;;
22097;SDS011;11215;51.938;8.464;2023-04-25T20:17:06;3.10;;;1.40;;
22097;SDS011;11215;51.938;8.464;2023-04-25T20:19:32;3.83;;;1.50;;
22097;SDS011;11215;51.938;8.464;2023-04-25T20:21:58;4.57;;;1.30;;
22097;SDS011;11215;51.938;8.464;2023-04-25T20:24:23;5.47;;;1.40;;
22097;SDS011;11215;51.938;8.464;2023-04-25T20:26:49;5.17;;;1.60;;
22097;SDS011;11215;51.938;8.464;2023-04-25T20:29:15;3.60;;;1.30;;